BSB weather

Presidente Juscelino Kubistschek International Airport
Brasília, Distrito Federal, Brazil

Public forecast

Using degrees Celsius for public forecast. Weather courtesy of forecast.io.

METAR (pilot weather report)

Retrieved 2019/06/25 14:00 UTC (54 minutes ago):

SBBR 251400Z 04008KT 350V080 9999 SCT040 26/12 Q1020

TAF (pilot weather forecast)

Retrieved 2019/06/25 12:00 UTC (3 hours ago):

TAF SBBR 251000Z 2512/2612 06008KT 9999 SCT035 TX26/2517Z TN15/2607Z BECMG 2518/2520 09008KT CAVOK BECMG 2600/2602 06004KT 9999 SCT045 BECMG 2603/2605 00000KT CAVOK RMK PFF